Time;durP1;ratioP1;P1;durP2;ratioP2;P2;SDS_P1;SDS_P2;PMS_P1;PMS_P2;Temp;Humidity;BMP_temperature;BMP_pressure;BME280_temperature;BME280_humidity;BME280_pressure;Samples;Min_cycle;Max_cycle;Signal;HPM_P1;HPM_P2
2022/08/25 00:01:49;;;;;;;3.37;2.40;;;19.90;64.80;;;;;;5051784;28;20432;-69
2022/08/25 00:04:35;;;;;;;6.73;2.93;;;19.90;64.80;;;;;;5047097;28;20490;-71
2022/08/25 00:07:20;;;;;;;10.30;3.07;;;19.90;64.90;;;;;;5052003;28;20423;-70
2022/08/25 00:10:08;;;;;;;3.83;2.90;;;19.90;64.80;;;;;;5049652;28;20814;-71
2022/08/25 00:12:56;;;;;;;4.50;3.10;;;19.80;65.50;;;;;;5043696;28;20466;-71
2022/08/25 00:15:43;;;;;;;5.43;3.10;;;19.70;66.50;;;;;;5046128;28;20956;-71
2022/08/25 00:18:29;;;;;;;4.50;3.20;;;19.70;67.40;;;;;;5052052;28;20545;-70
2022/08/25 00:21:16;;;;;;;4.93;3.20;;;19.60;68.20;;;;;;5045061;28;20471;-70
2022/08/25 00:24:03;;;;;;;4.20;3.13;;;19.60;68.70;;;;;;5049566;28;20424;-71
2022/08/25 00:26:52;;;;;;;5.50;3.43;;;19.70;68.90;;;;;;5049899;28;20501;-71
2022/08/25 00:29:38;;;;;;;5.60;3.20;;;19.70;68.80;;;;;;5049801;28;20436;-71
2022/08/25 00:32:25;;;;;;;4.90;3.47;;;19.60;69.20;;;;;;5049153;28;20519;-71
2022/08/25 00:35:12;;;;;;;7.27;3.10;;;19.60;69.70;;;;;;5043307;28;20472;-71
2022/08/25 00:37:57;;;;;;;4.07;3.23;;;19.60;69.90;;;;;;5046040;28;20427;-71
2022/08/25 00:40:43;;;;;;;5.17;2.73;;;19.60;70.00;;;;;;5043632;28;20420;-71
2022/08/25 00:43:34;;;;;;;7.40;3.40;;;19.60;70.30;;;;;;5048458;28;20494;-71
2022/08/25 00:46:24;;;;;;;6.50;3.23;;;19.60;71.20;;;;;;5050834;28;20510;-71
2022/08/25 00:49:14;;;;;;;4.90;3.47;;;19.50;71.60;;;;;;5047447;28;20426;-70
2022/08/25 00:52:04;;;;;;;4.00;3.03;;;19.50;72.20;;;;;;5048896;28;20980;-71
2022/08/25 00:54:52;;;;;;;4.10;3.20;;;19.50;72.30;;;;;;5049606;28;20517;-71
2022/08/25 00:57:42;;;;;;;4.40;3.30;;;19.50;72.20;;;;;;5047742;28;20971;-72
2022/08/25 01:00:33;;;;;;;7.10;3.60;;;19.50;72.20;;;;;;5042977;28;20499;-71
2022/08/25 01:03:20;;;;;;;7.20;4.20;;;19.40;73.10;;;;;;5047434;28;20788;-71
2022/08/25 01:06:09;;;;;;;3.90;3.03;;;19.30;74.00;;;;;;5047959;28;20459;-71
2022/08/25 01:08:54;;;;;;;4.50;3.33;;;19.30;74.50;;;;;;5047512;28;20439;-71
2022/08/25 01:11:41;;;;;;;3.63;2.83;;;19.30;75.30;;;;;;5045183;28;20835;-71
2022/08/25 01:14:30;;;;;;;6.50;3.70;;;19.20;75.60;;;;;;5046634;28;21021;-70
2022/08/25 01:17:16;;;;;;;6.03;3.30;;;19.20;76.10;;;;;;5044486;28;20431;-71
2022/08/25 01:20:02;;;;;;;4.00;3.10;;;19.20;76.50;;;;;;5046210;28;20963;-71
2022/08/25 01:22:51;;;;;;;4.67;3.57;;;19.20;77.20;;;;;;5045755;28;20580;-71
2022/08/25 01:25:43;;;;;;;5.97;3.47;;;19.30;77.10;;;;;;5045726;28;20447;-71
2022/08/25 01:28:29;;;;;;;5.87;3.40;;;19.30;77.10;;;;;;5044758;28;20451;-71
2022/08/25 01:31:14;;;;;;;4.30;3.60;;;19.30;77.80;;;;;;5044866;28;20988;-71
2022/08/25 01:34:00;;;;;;;5.70;3.90;;;19.20;78.30;;;;;;5048359;28;20549;-70
2022/08/25 01:36:46;;;;;;;4.87;3.80;;;19.10;79.90;;;;;;5044434;28;21095;-68
2022/08/25 01:39:35;;;;;;;4.80;3.90;;;19.20;80.10;;;;;;5048918;28;20827;-69
2022/08/25 01:42:34;;;;;;;4.40;3.70;;;19.20;80.30;;;;;;5044282;28;20972;-71
2022/08/25 01:45:20;;;;;;;5.77;4.80;;;19.20;80.80;;;;;;5041628;28;20701;-71
2022/08/25 01:48:07;;;;;;;6.80;4.50;;;19.20;81.60;;;;;;5045764;28;20419;-70
2022/08/25 01:50:52;;;;;;;6.33;4.13;;;19.20;82.10;;;;;;5041126;28;20447;-71
2022/08/25 01:53:38;;;;;;;5.63;4.10;;;19.10;83.20;;;;;;5049414;28;20495;-71
2022/08/25 01:56:25;;;;;;;5.37;4.10;;;19.10;83.70;;;;;;5045435;28;20439;-71
2022/08/25 01:59:10;;;;;;;7.93;4.90;;;19.20;83.50;;;;;;5045740;28;20501;-71
2022/08/25 02:01:56;;;;;;;5.70;4.03;;;19.30;83.50;;;;;;5045451;28;20818;-71
2022/08/25 02:04:42;;;;;;;6.70;4.07;;;19.30;83.30;;;;;;5039959;28;20420;-71
2022/08/25 02:07:27;;;;;;;6.70;4.80;;;19.30;84.00;;;;;;5043486;28;20937;-71
2022/08/25 02:10:13;;;;;;;18.03;5.07;;;19.20;85.40;;;;;;5043962;28;20451;-70
2022/08/25 02:13:00;;;;;;;4.97;4.10;;;19.20;86.20;;;;;;5039156;28;20424;-70
2022/08/25 02:15:49;;;;;;;8.87;5.20;;;19.20;88.10;;;;;;5045445;28;20427;-71
2022/08/25 02:18:35;;;;;;;8.77;5.50;;;19.30;87.80;;;;;;5047263;28;20428;-71
2022/08/25 02:21:21;;;;;;;8.60;5.77;;;19.20;88.40;;;;;;5045974;28;20459;-71
2022/08/25 02:24:07;;;;;;;6.67;5.40;;;19.20;89.50;;;;;;5043124;28;20423;-71
2022/08/25 02:26:54;;;;;;;6.53;5.07;;;19.20;90.00;;;;;;5041718;28;20441;-71
2022/08/25 02:29:40;;;;;;;7.30;4.90;;;19.20;90.30;;;;;;5046765;28;20447;-71
2022/08/25 02:32:26;;;;;;;7.27;5.10;;;19.20;90.30;;;;;;5045397;28;20440;-71
2022/08/25 02:35:13;;;;;;;8.17;5.17;;;19.20;91.00;;;;;;5044029;28;20610;-71
2022/08/25 02:37:58;;;;;;;8.37;6.03;;;19.20;91.80;;;;;;5046755;28;20954;-71
2022/08/25 02:40:44;;;;;;;8.07;5.10;;;19.20;91.80;;;;;;5039080;28;20494;-71
2022/08/25 02:43:30;;;;;;;6.57;5.70;;;19.20;91.60;;;;;;5045184;28;20439;-71
2022/08/25 02:46:20;;;;;;;7.60;5.33;;;19.30;91.90;;;;;;5049641;28;20538;-71
2022/08/25 02:49:07;;;;;;;8.63;5.30;;;19.30;91.70;;;;;;5044535;28;20428;-70
2022/08/25 02:51:54;;;;;;;9.13;5.30;;;19.30;91.60;;;;;;5045959;28;20428;-71
2022/08/25 02:54:39;;;;;;;5.93;5.33;;;19.40;91.50;;;;;;5042139;28;20475;-71
2022/08/25 02:57:25;;;;;;;8.77;5.90;;;19.20;92.00;;;;;;5040700;28;20424;-70
2022/08/25 03:00:12;;;;;;;8.70;5.63;;;19.20;92.20;;;;;;5042095;28;20454;-71
2022/08/25 03:02:59;;;;;;;9.57;6.30;;;19.30;92.80;;;;;;5045878;28;20571;-70
2022/08/25 03:05:45;;;;;;;6.80;5.30;;;19.40;92.40;;;;;;5048916;28;20455;-71
2022/08/25 03:08:31;;;;;;;9.20;5.90;;;19.20;92.70;;;;;;5045779;28;20416;-70
2022/08/25 03:11:17;;;;;;;10.53;6.17;;;19.30;92.60;;;;;;5044715;28;20990;-71
2022/08/25 03:14:03;;;;;;;8.63;5.53;;;19.40;92.50;;;;;;5038683;28;20471;-71
2022/08/25 03:16:49;;;;;;;6.90;5.87;;;19.30;92.80;;;;;;5038184;28;20440;-71
2022/08/25 03:19:36;;;;;;;7.77;5.90;;;19.30;93.00;;;;;;5042146;28;20447;-71
2022/08/25 03:22:22;;;;;;;7.93;6.67;;;19.20;93.30;;;;;;5041802;28;20520;-71
2022/08/25 03:28:11;;;;;;;8.73;6.20;;;19.20;93.30;;;;;;5044273;28;20836;-70
2022/08/25 03:30:59;;;;;;;8.13;6.33;;;19.20;93.40;;;;;;5043751;28;20428;-71
2022/08/25 03:33:45;;;;;;;10.77;6.67;;;19.20;93.30;;;;;;5049444;28;20427;-71
2022/08/25 03:36:32;;;;;;;7.10;6.00;;;19.10;93.40;;;;;;5045176;28;20463;-71
2022/08/25 03:39:18;;;;;;;9.13;6.60;;;19.20;93.20;;;;;;5045522;28;20446;-71
2022/08/25 03:42:04;;;;;;;7.90;6.40;;;19.00;93.60;;;;;;5042384;28;20560;-71
2022/08/25 03:44:49;;;;;;;8.87;6.67;;;19.00;93.90;;;;;;5044847;28;20992;-71
2022/08/25 03:47:35;;;;;;;11.70;6.23;;;19.00;93.90;;;;;;5049731;28;20517;-71
2022/08/25 03:50:22;;;;;;;12.63;6.30;;;18.90;94.30;;;;;;5043782;28;20444;-71
2022/08/25 03:53:10;;;;;;;7.10;5.87;;;18.90;94.40;;;;;;5051232;28;20489;-71
2022/08/25 03:55:56;;;;;;;8.70;6.80;;;18.90;94.80;;;;;;5049135;28;20821;-71
2022/08/25 03:58:42;;;;;;;8.73;5.90;;;19.00;94.60;;;;;;5041547;28;20966;-71
2022/08/25 04:01:27;;;;;;;7.67;5.93;;;19.10;94.40;;;;;;5046801;28;20932;-71
2022/08/25 04:04:15;;;;;;;9.33;6.37;;;19.10;94.30;;;;;;5049360;28;20940;-71
2022/08/25 04:07:01;;;;;;;17.30;6.30;;;19.00;94.30;;;;;;5045529;28;21008;-70
2022/08/25 04:09:48;;;;;;;10.13;6.47;;;18.90;95.00;;;;;;5046058;28;20514;-70
2022/08/25 04:12:34;;;;;;;8.00;6.40;;;18.80;94.70;;;;;;5045744;28;20443;-71
2022/08/25 04:15:20;;;;;;;10.00;6.77;;;18.70;94.70;;;;;;5051548;28;20816;-71
2022/08/25 04:18:06;;;;;;;8.60;7.10;;;18.80;94.70;;;;;;5047795;28;20519;-71
2022/08/25 04:20:51;;;;;;;8.07;6.87;;;18.60;95.00;;;;;;5047666;28;20431;-71
2022/08/25 04:23:37;;;;;;;8.33;7.17;;;18.70;95.90;;;;;;5045405;28;20900;-71
2022/08/25 04:26:29;;;;;;;8.83;6.67;;;18.60;96.20;;;;;;5046104;28;20848;-71
2022/08/25 04:29:17;;;;;;;7.10;6.20;;;18.60;96.40;;;;;;5043121;28;20444;-71
2022/08/25 04:32:03;;;;;;;9.17;6.93;;;18.60;96.70;;;;;;5051003;28;20798;-71
2022/08/25 04:34:49;;;;;;;8.60;7.67;;;18.60;96.90;;;;;;5043523;28;20471;-71
2022/08/25 04:37:35;;;;;;;9.17;6.47;;;18.70;96.90;;;;;;5048719;28;20813;-70
2022/08/25 04:40:20;;;;;;;8.47;6.23;;;18.80;96.60;;;;;;5050777;28;20434;-71
2022/08/25 04:43:07;;;;;;;10.80;6.13;;;18.70;96.60;;;;;;5047241;28;20806;-71
2022/08/25 04:45:53;;;;;;;8.60;6.60;;;18.60;96.70;;;;;;5048199;28;20440;-71
2022/08/25 04:48:40;;;;;;;7.47;6.63;;;18.50;97.10;;;;;;5042583;28;20870;-71
2022/08/25 04:51:28;;;;;;;9.90;7.23;;;18.60;97.60;;;;;;5045705;28;20419;-70
2022/08/25 04:54:20;;;;;;;11.50;6.57;;;18.50;97.60;;;;;;5047458;28;20427;-71
2022/08/25 04:57:06;;;;;;;7.67;6.90;;;18.60;97.40;;;;;;5045686;28;20480;-71
2022/08/25 04:59:54;;;;;;;12.93;7.00;;;18.50;97.50;;;;;;5049457;28;20435;-71
2022/08/25 05:02:39;;;;;;;8.00;7.03;;;18.60;97.50;;;;;;5047375;28;20424;-71
2022/08/25 05:05:25;;;;;;;8.70;7.17;;;18.60;97.40;;;;;;5062405;22;20528;-71
2022/08/25 05:08:11;;;;;;;7.00;6.10;;;18.70;97.20;;;;;;5045681;28;20447;-71
2022/08/25 05:10:57;;;;;;;8.20;6.20;;;18.70;97.00;;;;;;5045216;28;20513;-71
2022/08/25 05:13:43;;;;;;;9.07;7.30;;;18.70;96.70;;;;;;5051817;28;20427;-71
2022/08/25 05:16:31;;;;;;;7.90;6.60;;;18.70;96.80;;;;;;5046771;28;21011;-71
2022/08/25 05:19:17;;;;;;;9.27;7.30;;;18.70;96.90;;;;;;5040394;28;20436;-71
2022/08/25 05:22:02;;;;;;;7.20;6.10;;;18.70;97.50;;;;;;5048166;28;20427;-71
2022/08/25 05:24:48;;;;;;;9.80;7.40;;;18.70;97.60;;;;;;5041521;28;20429;-71
2022/08/25 05:27:34;;;;;;;7.77;6.97;;;18.80;97.60;;;;;;5038550;28;20953;-71
2022/08/25 05:30:20;;;;;;;7.83;7.03;;;18.80;99.00;;;;;;5045636;28;20784;-71
2022/08/25 05:33:07;;;;;;;11.50;8.00;;;18.80;98.90;;;;;;5042873;28;20424;-71
2022/08/25 05:35:52;;;;;;;9.00;8.07;;;18.90;99.00;;;;;;5051057;28;20542;-71
2022/08/25 05:38:39;;;;;;;9.57;8.07;;;19.00;99.20;;;;;;5048640;28;20554;-71
2022/08/25 05:41:29;;;;;;;13.27;8.43;;;19.10;99.10;;;;;;5047262;28;20779;-71
2022/08/25 05:44:16;;;;;;;8.93;7.17;;;19.20;98.70;;;;;;5048980;28;20778;-71
2022/08/25 05:47:01;;;;;;;13.53;6.07;;;19.30;98.60;;;;;;5037384;28;20836;-71
2022/08/25 05:49:49;;;;;;;9.20;6.97;;;19.40;98.50;;;;;;5046881;28;20439;-71
2022/08/25 05:52:34;;;;;;;9.27;7.27;;;19.50;98.10;;;;;;5044231;28;20435;-71
2022/08/25 05:55:20;;;;;;;9.97;6.80;;;19.60;98.20;;;;;;5038308;28;20469;-71
2022/08/25 05:58:06;;;;;;;10.63;6.73;;;19.60;98.20;;;;;;5044048;28;20448;-71
2022/08/25 06:00:52;;;;;;;8.70;6.80;;;19.60;98.40;;;;;;5043961;28;20497;-71
2022/08/25 06:03:36;;;;;;;11.43;7.90;;;19.70;98.50;;;;;;5044841;28;20435;-71
2022/08/25 06:06:25;;;;;;;7.93;5.87;;;19.80;98.90;;;;;;5042556;28;20525;-71
2022/08/25 06:09:10;;;;;;;10.67;7.10;;;19.90;98.70;;;;;;5042165;28;20428;-71
2022/08/25 06:11:56;;;;;;;9.63;7.60;;;20.00;98.40;;;;;;5045105;28;20440;-71
2022/08/25 06:14:42;;;;;;;9.10;7.53;;;20.10;98.60;;;;;;5042260;28;20478;-71
2022/08/25 06:17:28;;;;;;;8.80;7.40;;;20.30;98.10;;;;;;5038891;28;20468;-71
2022/08/25 06:20:15;;;;;;;8.73;7.13;;;20.40;97.70;;;;;;5045024;28;20432;-71
2022/08/25 06:23:02;;;;;;;9.77;7.30;;;20.50;97.40;;;;;;5049779;28;20431;-71
2022/08/25 06:25:50;;;;;;;9.30;7.20;;;20.60;97.70;;;;;;5041500;28;20464;-71
2022/08/25 06:28:36;;;;;;;8.20;7.07;;;20.80;97.60;;;;;;5041579;28;20439;-71
2022/08/25 06:31:22;;;;;;;10.87;7.50;;;20.90;97.50;;;;;;5044387;28;20420;-71
2022/08/25 06:34:08;;;;;;;14.00;7.43;;;21.00;97.30;;;;;;5039900;28;20443;-71
2022/08/25 06:36:54;;;;;;;13.47;7.40;;;21.10;97.20;;;;;;5043496;28;20482;-71
2022/08/25 06:39:41;;;;;;;9.10;6.80;;;21.20;97.10;;;;;;5045690;28;20423;-71
2022/08/25 06:42:27;;;;;;;10.73;7.13;;;21.30;97.00;;;;;;5044383;28;20447;-71
2022/08/25 06:45:12;;;;;;;8.10;7.20;;;21.40;96.50;;;;;;5046077;28;20925;-71
2022/08/25 06:47:59;;;;;;;7.37;6.67;;;21.50;96.90;;;;;;5043268;28;20412;-71
2022/08/25 06:50:45;;;;;;;7.40;6.70;;;21.60;96.70;;;;;;5044943;28;20964;-71
2022/08/25 06:53:30;;;;;;;11.37;6.80;;;21.80;96.30;;;;;;5044618;28;20980;-71
2022/08/25 06:56:19;;;;;;;9.03;6.93;;;22.00;95.50;;;;;;5039702;28;20611;-71
2022/08/25 06:59:06;;;;;;;8.70;7.20;;;22.20;95.30;;;;;;5042754;28;20433;-71
2022/08/25 07:01:51;;;;;;;10.60;7.73;;;22.30;94.80;;;;;;5045130;28;20427;-71
2022/08/25 07:04:37;;;;;;;11.00;7.73;;;22.50;94.10;;;;;;5040925;28;20514;-71
2022/08/25 07:07:23;;;;;;;8.70;7.77;;;22.70;92.90;;;;;;5044619;28;20814;-71
2022/08/25 07:10:09;;;;;;;8.20;6.97;;;22.80;92.50;;;;;;5043814;28;20428;-71
2022/08/25 07:12:57;;;;;;;8.00;6.60;;;23.00;91.60;;;;;;5044799;28;20790;-71
2022/08/25 07:15:43;;;;;;;7.90;6.47;;;23.20;90.50;;;;;;5036637;28;20487;-71
2022/08/25 07:18:29;;;;;;;8.63;6.90;;;23.30;90.00;;;;;;5042432;28;20419;-71
2022/08/25 07:21:16;;;;;;;7.47;6.67;;;23.40;88.20;;;;;;5048259;28;20933;-71
2022/08/25 07:24:04;;;;;;;8.90;6.83;;;23.60;86.80;;;;;;5052576;28;20802;-71
2022/08/25 07:26:49;;;;;;;9.97;7.00;;;23.70;84.80;;;;;;5047616;28;20499;-71
2022/08/25 07:29:37;;;;;;;8.50;7.27;;;23.80;81.80;;;;;;5044669;28;20539;-71
2022/08/25 07:32:23;;;;;;;7.60;6.80;;;23.90;80.40;;;;;;5046578;28;20510;-71
2022/08/25 07:35:14;;;;;;;7.70;6.63;;;23.90;80.40;;;;;;5044106;28;20534;-71
2022/08/25 07:38:00;;;;;;;9.97;8.13;;;23.90;78.40;;;;;;5049219;28;20416;-71
2022/08/25 07:40:53;;;;;;;7.00;6.10;;;24.00;79.90;;;;;;5050303;28;20439;-71
2022/08/25 07:43:40;;;;;;;14.13;6.80;;;24.10;79.10;;;;;;5044028;28;20509;-71
2022/08/25 07:46:27;;;;;;;7.40;6.60;;;24.10;78.90;;;;;;5043348;28;20982;-71
2022/08/25 07:49:14;;;;;;;8.80;6.73;;;24.20;78.00;;;;;;5052114;28;20423;-71
2022/08/25 07:51:59;;;;;;;9.07;6.90;;;24.40;77.10;;;;;;5045829;28;20892;-71
2022/08/25 07:54:45;;;;;;;11.60;7.37;;;24.40;74.30;;;;;;5042888;28;20535;-71
2022/08/25 07:57:31;;;;;;;9.40;6.90;;;24.30;73.60;;;;;;5046705;28;20459;-71
2022/08/25 08:00:17;;;;;;;9.53;6.07;;;24.40;74.60;;;;;;5038714;28;20479;-72
2022/08/25 08:03:06;;;;;;;10.13;6.90;;;24.50;74.50;;;;;;5052986;28;20913;-71
2022/08/25 08:05:55;;;;;;;8.40;6.73;;;24.70;74.20;;;;;;5041756;28;20479;-71
2022/08/25 08:08:44;;;;;;;8.43;5.50;;;24.70;73.40;;;;;;5042006;28;20948;-71
2022/08/25 08:11:31;;;;;;;8.13;6.67;;;24.90;71.20;;;;;;5045273;28;20423;-71
2022/08/25 08:14:17;;;;;;;6.77;5.70;;;25.00;69.80;;;;;;5039309;28;21052;-71
2022/08/25 08:17:06;;;;;;;13.47;6.20;;;25.10;68.10;;;;;;5047355;28;20476;-71
2022/08/25 08:19:53;;;;;;;6.50;5.80;;;25.30;66.70;;;;;;5042280;28;20427;-71
2022/08/25 08:22:41;;;;;;;7.80;6.47;;;25.30;66.80;;;;;;5049873;28;20431;-71
2022/08/25 08:25:27;;;;;;;10.13;6.70;;;25.30;64.70;;;;;;5045231;28;20526;-71
2022/08/25 08:28:13;;;;;;;6.10;5.50;;;25.40;64.10;;;;;;5044386;28;20484;-71
2022/08/25 08:30:59;;;;;;;6.53;5.50;;;25.60;63.60;;;;;;5045814;28;20436;-71
2022/08/25 08:33:45;;;;;;;7.80;6.17;;;25.60;62.10;;;;;;5042379;28;20952;-71
2022/08/25 08:36:32;;;;;;;7.33;6.10;;;25.70;61.20;;;;;;5048784;28;20538;-71
2022/08/25 08:39:18;;;;;;;10.33;5.63;;;25.70;60.90;;;;;;5049582;28;20427;-71
2022/08/25 08:42:21;;;;;;;6.53;5.47;;;25.80;59.30;;;;;;5048138;28;20423;-71
2022/08/25 08:45:17;;;;;;;7.30;6.03;;;25.90;59.40;;;;;;5043282;28;20447;-71
2022/08/25 08:48:22;;;;;;;7.10;5.77;;;26.00;58.40;;;;;;5051297;28;20428;-71
2022/08/25 08:51:17;;;;;;;5.67;5.03;;;26.10;55.50;;;;;;5042815;28;20782;-71
2022/08/25 08:54:10;;;;;;;6.53;5.73;;;26.10;53.80;;;;;;5046262;28;20991;-71
2022/08/25 08:57:04;;;;;;;7.50;5.93;;;26.20;54.90;;;;;;5045729;28;20511;-71
2022/08/25 08:59:55;;;;;;;8.30;5.63;;;26.40;54.40;;;;;;5044445;28;20472;-71
2022/08/25 09:02:47;;;;;;;7.60;5.30;;;26.50;52.30;;;;;;5043785;28;20530;-71
2022/08/25 09:05:38;;;;;;;7.67;5.87;;;26.50;50.50;;;;;;5045558;28;20570;-71
2022/08/25 09:08:23;;;;;;;7.70;5.90;;;26.60;50.50;;;;;;5048875;28;20447;-71
2022/08/25 09:11:18;;;;;;;10.80;5.37;;;26.60;49.40;;;;;;5048969;28;20435;-71
2022/08/25 09:14:17;;;;;;;6.53;5.77;;;26.70;48.50;;;;;;5040039;28;20444;-71
2022/08/25 09:17:07;;;;;;;8.07;5.03;;;26.80;47.10;;;;;;5045301;28;20472;-71
2022/08/25 09:20:23;;;;;;;13.70;5.83;;;26.80;48.00;;;;;;5039173;28;20492;-71
2022/08/25 09:23:22;;;;;;;9.20;5.93;;;27.00;47.20;;;;;;5042133;28;20456;-71
2022/08/25 09:26:22;;;;;;;8.03;5.70;;;27.10;46.50;;;;;;5049912;28;20436;-72
2022/08/25 09:29:12;;;;;;;9.83;5.70;;;27.20;46.40;;;;;;5046874;28;20423;-71
2022/08/25 09:32:00;;;;;;;8.67;5.57;;;27.30;44.60;;;;;;5045368;28;20440;-72
2022/08/25 09:34:48;;;;;;;7.33;5.50;;;27.30;43.80;;;;;;5044000;28;20432;-71
2022/08/25 09:37:35;;;;;;;6.80;5.67;;;27.30;42.00;;;;;;5040919;28;20920;-71
2022/08/25 09:40:22;;;;;;;7.37;5.03;;;27.10;40.60;;;;;;5039606;28;20933;-71
2022/08/25 09:43:21;;;;;;;7.10;5.93;;;26.70;41.60;;;;;;5040541;28;20463;-71
2022/08/25 09:46:12;;;;;;;14.03;5.03;;;26.70;42.00;;;;;;5039451;28;20522;-71
2022/08/25 09:49:10;;;;;;;7.03;5.63;;;26.90;44.50;;;;;;5046982;28;20509;-72
2022/08/25 09:51:56;;;;;;;7.37;5.97;;;27.10;43.80;;;;;;5039356;28;20834;-72
2022/08/25 09:54:42;;;;;;;8.40;5.93;;;27.40;41.80;;;;;;5043400;28;20423;-71
2022/08/25 09:57:30;;;;;;;6.80;5.70;;;27.60;41.30;;;;;;5044698;28;20463;-71
2022/08/25 10:00:21;;;;;;;6.33;5.10;;;27.70;40.90;;;;;;5043407;28;20428;-71
2022/08/25 10:03:12;;;;;;;7.47;5.70;;;27.90;39.50;;;;;;5044927;28;20452;-71
2022/08/25 10:06:04;;;;;;;6.70;5.10;;;28.00;39.30;;;;;;5046586;28;20458;-71
2022/08/25 10:08:57;;;;;;;6.47;5.30;;;28.20;38.00;;;;;;5043946;28;20431;-71
2022/08/25 10:11:46;;;;;;;6.80;5.30;;;28.30;36.90;;;;;;5042531;28;20623;-71
2022/08/25 10:14:37;;;;;;;5.97;5.37;;;28.50;35.80;;;;;;5049398;28;20444;-71
2022/08/25 10:17:28;;;;;;;7.13;5.43;;;28.60;35.80;;;;;;5040546;28;20476;-71
2022/08/25 10:20:18;;;;;;;8.33;5.70;;;28.70;35.40;;;;;;5046266;28;20801;-72
2022/08/25 10:23:11;;;;;;;5.63;4.93;;;28.80;35.70;;;;;;5045390;28;21100;-71
2022/08/25 10:26:02;;;;;;;5.63;4.90;;;28.90;34.80;;;;;;5044480;28;20448;-71
2022/08/25 10:29:00;;;;;;;7.73;5.57;;;28.90;35.40;;;;;;5044332;28;20436;-72
2022/08/25 10:31:50;;;;;;;10.47;4.93;;;28.80;34.70;;;;;;5040594;28;20448;-72
2022/08/25 10:34:46;;;;;;;6.17;4.77;;;28.70;34.10;;;;;;5049098;28;20431;-71
2022/08/25 10:37:40;;;;;;;6.23;4.80;;;28.60;34.90;;;;;;5041547;28;20517;-71
2022/08/25 10:40:32;;;;;;;7.80;4.90;;;28.80;34.40;;;;;;5041207;28;20802;-71
2022/08/25 10:43:28;;;;;;;6.00;5.40;;;28.90;33.70;;;;;;5044125;28;21018;-71
2022/08/25 10:46:20;;;;;;;6.53;4.97;;;29.10;33.90;;;;;;5042168;28;20452;-72
2022/08/25 10:49:15;;;;;;;5.27;4.30;;;29.30;34.00;;;;;;5050003;28;20932;-72
2022/08/25 10:52:07;;;;;;;5.40;4.90;;;29.40;33.20;;;;;;5042319;28;20462;-72
2022/08/25 10:54:59;;;;;;;8.33;4.33;;;29.40;33.10;;;;;;5048516;28;20471;-72
2022/08/25 10:57:54;;;;;;;5.50;4.60;;;29.30;32.60;;;;;;5048467;28;20494;-72
2022/08/25 11:00:48;;;;;;;8.97;4.50;;;29.40;34.10;;;;;;5044502;28;20430;-72
2022/08/25 11:03:48;;;;;;;5.90;4.97;;;29.60;32.00;;;;;;5049168;28;20474;-72
2022/08/25 11:06:42;;;;;;;5.80;4.37;;;29.70;31.10;;;;;;5073829;22;20504;-70
2022/08/25 11:09:34;;;;;;;11.60;4.73;;;29.60;30.50;;;;;;5075069;28;20497;-70
2022/08/25 11:12:28;;;;;;;4.87;4.37;;;29.40;30.80;;;;;;5065769;28;20454;-70
2022/08/25 11:15:21;;;;;;;7.57;4.83;;;29.30;31.60;;;;;;5073914;28;20442;-69
2022/08/25 11:18:11;;;;;;;6.83;3.73;;;29.20;31.20;;;;;;5056516;28;20551;-70
2022/08/25 11:21:03;;;;;;;5.33;4.00;;;29.40;32.30;;;;;;5040202;28;20588;-70
2022/08/25 11:23:57;;;;;;;7.53;4.10;;;29.50;31.40;;;;;;5046370;28;20415;-70
2022/08/25 11:26:51;;;;;;;6.50;4.53;;;29.70;29.00;;;;;;5047750;28;20503;-69
2022/08/25 11:29:40;;;;;;;5.07;4.20;;;29.80;29.50;;;;;;5042141;28;20424;-70
2022/08/25 11:32:26;;;;;;;7.10;4.63;;;29.70;28.80;;;;;;5046023;28;20491;-69
2022/08/25 11:35:14;;;;;;;6.27;4.20;;;29.60;29.70;;;;;;5051298;28;20430;-70
2022/08/25 11:38:15;;;;;;;6.47;4.33;;;29.70;29.30;;;;;;5047344;28;20472;-69
2022/08/25 11:41:15;;;;;;;5.17;4.10;;;29.70;29.80;;;;;;5048579;28;20925;-70
2022/08/25 11:44:15;;;;;;;4.77;3.60;;;29.80;30.10;;;;;;5044909;28;20918;-69
2022/08/25 11:47:35;;;;;;;6.73;4.43;;;29.70;29.40;;;;;;5050414;28;20604;-71
2022/08/25 11:50:28;;;;;;;5.30;4.17;;;29.60;29.90;;;;;;5048929;28;20842;-70
2022/08/25 11:53:24;;;;;;;5.43;4.83;;;29.50;29.20;;;;;;5049506;28;20436;-70
2022/08/25 11:56:12;;;;;;;6.23;3.80;;;29.60;29.70;;;;;;5041731;28;20448;-70
2022/08/25 11:58:58;;;;;;;5.50;4.40;;;29.60;28.70;;;;;;5040145;28;20443;-70
2022/08/25 12:02:27;;;;;;;4.30;3.80;;;29.60;30.00;;;;;;5049645;28;20451;-70
2022/08/25 12:05:45;;;;;;;5.70;3.97;;;29.70;29.70;;;;;;5045994;28;20922;-70
2022/08/25 12:09:14;;;;;;;4.83;3.97;;;29.80;29.20;;;;;;5053008;28;20431;-70
2022/08/25 12:12:37;;;;;;;5.17;4.10;;;29.80;28.90;;;;;;5050076;28;21118;-69
2022/08/25 12:15:25;;;;;;;5.57;4.70;;;29.80;28.80;;;;;;5037305;28;20429;-70
2022/08/25 12:18:15;;;;;;;6.00;4.10;;;29.70;28.80;;;;;;5045599;28;20475;-70
2022/08/25 12:21:32;;;;;;;6.73;4.17;;;29.80;28.70;;;;;;5047030;28;20660;-70
2022/08/25 12:24:21;;;;;;;5.23;4.53;;;30.00;28.30;;;;;;5041469;28;20638;-70
2022/08/25 12:27:10;;;;;;;5.33;4.30;;;30.20;27.00;;;;;;5047445;28;20448;-70
2022/08/25 12:30:01;;;;;;;6.20;4.80;;;30.20;27.70;;;;;;5039609;28;20449;-70
2022/08/25 12:33:01;;;;;;;4.47;3.83;;;30.30;28.10;;;;;;5050517;28;20439;-70
2022/08/25 12:35:57;;;;;;;5.47;4.37;;;30.50;26.70;;;;;;5053611;28;20452;-70
2022/08/25 12:38:45;;;;;;;6.87;4.60;;;30.60;27.80;;;;;;5044290;28;20863;-70
2022/08/25 12:41:31;;;;;;;5.80;4.03;;;30.80;28.00;;;;;;5047507;28;20444;-70
2022/08/25 12:44:33;;;;;;;6.07;4.33;;;31.30;26.80;;;;;;5044420;28;20744;-70
2022/08/25 12:47:31;;;;;;;11.00;4.30;;;31.50;24.70;;;;;;5053089;28;20927;-70
2022/08/25 12:50:36;;;;;;;7.50;3.87;;;31.80;25.10;;;;;;5047278;28;20956;-70
2022/08/25 12:53:34;;;;;;;5.37;4.00;;;32.00;24.00;;;;;;5042457;28;20436;-70
2022/08/25 12:56:27;;;;;;;4.47;3.70;;;32.30;24.40;;;;;;5040136;28;20981;-70
2022/08/25 12:59:17;;;;;;;5.67;4.07;;;32.30;23.60;;;;;;5040281;28;20527;-70
2022/08/25 13:02:40;;;;;;;7.27;4.50;;;32.10;23.90;;;;;;5038990;28;20559;-70
2022/08/25 13:05:48;;;;;;;4.73;3.90;;;31.70;24.00;;;;;;5013764;28;20424;-70
2022/08/25 13:08:58;;;;;;;4.53;3.67;;;31.70;24.40;;;;;;5045941;28;20425;-70
2022/08/25 13:11:51;;;;;;;6.07;3.83;;;32.10;23.50;;;;;;5054614;28;20415;-70
2022/08/25 13:14:39;;;;;;;5.00;4.13;;;32.50;23.70;;;;;;5039921;28;20511;-70
2022/08/25 13:17:26;;;;;;;4.70;3.90;;;32.70;23.10;;;;;;5049932;28;20551;-71
2022/08/25 13:20:14;;;;;;;6.07;4.27;;;32.90;22.80;;;;;;5045242;28;20452;-70
2022/08/25 13:23:01;;;;;;;4.37;3.87;;;32.90;21.90;;;;;;5052757;28;20423;-71
2022/08/25 13:25:51;;;;;;;5.17;4.07;;;32.70;21.70;;;;;;5044722;28;20432;-70
2022/08/25 13:28:39;;;;;;;5.60;4.00;;;32.60;22.80;;;;;;5037304;28;20428;-70
2022/08/25 13:31:27;;;;;;;4.77;3.83;;;32.30;23.00;;;;;;5052627;28;20935;-70
2022/08/25 13:34:18;;;;;;;14.60;4.20;;;32.40;22.80;;;;;;5040613;28;20796;-70
2022/08/25 13:40:16;;;;;;;7.20;4.70;;;32.80;22.30;;;;;;5044611;28;20442;-70
2022/08/25 13:43:06;;;;;;;7.67;4.80;;;32.90;22.70;;;;;;5046036;28;20444;-70
2022/08/25 13:45:52;;;;;;;5.37;4.30;;;32.40;21.40;;;;;;5049325;28;20439;-70
2022/08/25 13:48:41;;;;;;;5.07;3.67;;;32.20;23.00;;;;;;5043702;28;20528;-71
2022/08/25 13:51:27;;;;;;;5.03;3.50;;;32.10;22.00;;;;;;5041499;28;20420;-70
2022/08/25 13:54:25;;;;;;;10.67;3.70;;;32.30;22.10;;;;;;5045890;28;20528;-70
2022/08/25 13:57:16;;;;;;;4.43;3.20;;;32.60;22.00;;;;;;5040072;28;20830;-70
2022/08/25 14:00:07;;;;;;;4.83;3.77;;;32.50;21.50;;;;;;5034174;28;20487;-71
2022/08/25 14:02:54;;;;;;;5.20;3.80;;;32.20;22.20;;;;;;5046325;28;20519;-70
2022/08/25 14:05:43;;;;;;;5.10;4.00;;;32.00;22.80;;;;;;5042581;28;20443;-70
2022/08/25 14:08:31;;;;;;;4.83;3.80;;;32.10;22.30;;;;;;5039999;28;20559;-70
2022/08/25 14:11:29;;;;;;;7.23;4.13;;;32.40;22.00;;;;;;5042210;28;20437;-70
2022/08/25 14:14:32;;;;;;;6.43;3.77;;;32.80;21.40;;;;;;5046227;28;20435;-70
2022/08/25 14:17:19;;;;;;;5.20;4.00;;;33.00;20.30;;;;;;5042915;28;20484;-70
2022/08/25 14:20:06;;;;;;;4.67;3.90;;;33.30;20.70;;;;;;5034965;28;20440;-70
2022/08/25 14:22:56;;;;;;;5.77;3.87;;;33.50;20.20;;;;;;5043815;28;20804;-70
2022/08/25 14:25:42;;;;;;;5.80;4.50;;;33.50;19.80;;;;;;5041368;28;20571;-70
2022/08/25 14:28:30;;;;;;;5.40;4.43;;;33.10;20.70;;;;;;5039559;28;20837;-70
2022/08/25 14:31:24;;;;;;;9.20;4.50;;;32.70;21.00;;;;;;5049592;28;20429;-69
2022/08/25 14:34:15;;;;;;;5.77;3.90;;;32.20;22.20;;;;;;5046381;28;20448;-69
2022/08/25 14:37:00;;;;;;;6.07;4.60;;;32.10;23.50;;;;;;5044370;28;20449;-70
2022/08/25 14:39:46;;;;;;;5.07;3.57;;;32.10;22.80;;;;;;5046821;28;20531;-70
2022/08/25 14:42:31;;;;;;;7.17;4.00;;;32.10;21.90;;;;;;5044154;28;20469;-70
2022/08/25 14:45:18;;;;;;;5.30;4.17;;;32.00;21.20;;;;;;5049558;28;20513;-69
2022/08/25 14:48:07;;;;;;;5.47;4.00;;;32.10;21.50;;;;;;5044328;28;20443;-71